createdAt,value
2018-07-24T00:00:27.227Z,100128.61
2018-07-24T00:03:29.990Z,100129.04
2018-07-24T00:06:32.785Z,100123.81
2018-07-24T00:09:35.454Z,100124.33
2018-07-24T00:12:39.320Z,100122.53
2018-07-24T00:15:42.001Z,100123.98
2018-07-24T00:18:44.674Z,100118.97
2018-07-24T00:21:47.347Z,100120.42
2018-07-24T00:24:50.476Z,100115.99
2018-07-24T00:27:53.759Z,100115.37
2018-07-24T00:30:56.904Z,100111.39
2018-07-24T00:33:59.411Z,100114.67
2018-07-24T00:38:27.324Z,100108.65
2018-07-24T00:41:29.722Z,100100.69
2018-07-24T00:44:32.774Z,100106.07
2018-07-24T00:47:35.500Z,100114.27
2018-07-24T00:50:38.558Z,100109.67
2018-07-24T00:53:41.586Z,100109.84
2018-07-24T00:56:44.097Z,100103.38
2018-07-24T00:59:46.650Z,100108.37
2018-07-24T01:02:49.113Z,100104.04
2018-07-24T01:05:52.137Z,100101.41
2018-07-24T01:08:54.638Z,100096.09
2018-07-24T01:11:57.078Z,100100.06
2018-07-24T01:14:59.584Z,100093.90
2018-07-24T01:18:02.032Z,100093.98
2018-07-24T01:21:04.477Z,100095.03
2018-07-24T01:24:06.939Z,100095.03
2018-07-24T01:27:09.694Z,100089.35
2018-07-24T01:30:12.169Z,100088.73
2018-07-24T01:33:17.695Z,100091.87
2018-07-24T01:36:20.202Z,100088.59
2018-07-24T01:39:28.468Z,100093.45
2018-07-24T01:42:31.064Z,100088.88
2018-07-24T01:45:33.659Z,100089.75
2018-07-24T01:48:36.251Z,100088.42
2018-07-24T01:51:38.762Z,100082.50
2018-07-24T01:54:41.203Z,100086.34
2018-07-24T01:57:43.650Z,100083.27
2018-07-24T02:00:46.153Z,100083.12
2018-07-24T02:03:48.534Z,100082.64
2018-07-24T02:06:50.992Z,100078.59
2018-07-24T02:09:54.855Z,100077.10
2018-07-24T02:12:57.287Z,100073.02
2018-07-24T02:15:59.766Z,100076.30
2018-07-24T02:19:02.336Z,100073.68
2018-07-24T02:22:04.844Z,100075.95
2018-07-24T02:25:07.341Z,100072.15
2018-07-24T02:28:09.895Z,100068.23
2018-07-24T02:31:12.357Z,100073.96
2018-07-24T02:34:14.909Z,100068.67
2018-07-24T02:37:17.452Z,100062.26
2018-07-24T02:40:19.990Z,100065.48
2018-07-24T02:43:22.528Z,100063.60
2018-07-24T02:46:25.023Z,100062.31
2018-07-24T02:49:27.658Z,100069.09
2018-07-24T02:52:30.229Z,100058.11
2018-07-24T02:55:32.710Z,100062.83
2018-07-24T02:58:35.374Z,100063.06
2018-07-24T03:01:38.180Z,100075.09
2018-07-24T03:04:40.689Z,100071.53
2018-07-24T03:07:43.261Z,100061.91
2018-07-24T03:10:45.988Z,100072.54
2018-07-24T03:13:48.562Z,100067.69
2018-07-24T03:16:51.065Z,100069.53
2018-07-24T03:19:53.612Z,100074.50
2018-07-24T03:23:02.840Z,100072.58
2018-07-24T03:26:05.572Z,100069.94
2018-07-24T03:29:08.684Z,100069.11
2018-07-24T03:32:11.341Z,100071.62
2018-07-24T03:35:13.816Z,100073.41
2018-07-24T03:38:16.516Z,100075.56
2018-07-24T03:41:19.135Z,100073.83
2018-07-24T03:44:21.646Z,100064.12
2018-07-24T03:47:24.179Z,100069.92
2018-07-24T03:50:27.186Z,100074.11
2018-07-24T03:53:29.649Z,100074.73
2018-07-24T03:56:32.113Z,100077.00
2018-07-24T03:59:34.642Z,100083.88
2018-07-24T04:02:37.986Z,100070.34
2018-07-24T04:05:40.447Z,100078.97
2018-07-24T04:08:43.106Z,100074.16
2018-07-24T04:11:45.619Z,100082.31
2018-07-24T04:14:48.189Z,100078.52
2018-07-24T04:17:50.682Z,100075.34
2018-07-24T04:20:53.220Z,100080.83
2018-07-24T04:23:55.681Z,100082.50
2018-07-24T04:26:58.318Z,100073.39
2018-07-24T04:30:00.837Z,100073.67
2018-07-24T04:33:03.437Z,100071.23
2018-07-24T04:36:06.004Z,100070.66
2018-07-24T04:39:08.969Z,100071.91
2018-07-24T04:42:11.499Z,100068.34
2018-07-24T04:45:13.999Z,100071.94
2018-07-24T04:48:16.554Z,100066.36
2018-07-24T04:51:19.086Z,100063.51
2018-07-24T04:54:21.776Z,100069.28
2018-07-24T04:57:24.362Z,100068.57
2018-07-24T05:00:26.998Z,100065.53
2018-07-24T05:03:29.555Z,100065.20
2018-07-24T05:06:32.151Z,100072.23
2018-07-24T05:09:34.672Z,100068.19
2018-07-24T05:12:37.218Z,100077.80
2018-07-24T05:15:39.800Z,100074.91
2018-07-24T05:18:42.454Z,100077.94
2018-07-24T05:21:45.029Z,100080.38
2018-07-24T05:24:47.580Z,100075.47
2018-07-24T05:27:52.609Z,100086.22
2018-07-24T05:31:02.594Z,100083.20
2018-07-24T05:34:05.288Z,100082.23
2018-07-24T05:37:08.543Z,100080.72
2018-07-24T05:43:35.201Z,100079.89
2018-07-24T05:46:41.191Z,100074.59
2018-07-24T05:49:44.084Z,100081.89
2018-07-24T05:52:46.642Z,100081.89
2018-07-24T05:55:49.782Z,100084.80
2018-07-24T05:58:52.787Z,100078.64
2018-07-24T06:01:55.395Z,100077.30
2018-07-24T06:04:57.818Z,100085.33
2018-07-24T06:08:00.403Z,100083.32
2018-07-24T06:11:02.913Z,100078.48
2018-07-24T06:14:05.598Z,100076.33
2018-07-24T06:17:08.132Z,100091.61
2018-07-24T06:20:11.115Z,100093.08
2018-07-24T06:23:13.582Z,100088.64
2018-07-24T06:26:16.016Z,100090.31
2018-07-24T06:29:18.618Z,100089.39
2018-07-24T06:32:20.844Z,100085.52
2018-07-24T06:35:23.093Z,100085.97
2018-07-24T06:38:25.614Z,100089.61
2018-07-24T06:41:28.070Z,100087.02
2018-07-24T06:44:30.725Z,100087.05
2018-07-24T06:47:35.243Z,100085.16
2018-07-24T06:50:38.802Z,100089.41
2018-07-24T06:53:42.141Z,100090.53
2018-07-24T06:56:44.640Z,100090.67
2018-07-24T06:59:47.422Z,100090.27
2018-07-24T07:02:50.117Z,100091.99
2018-07-24T07:05:53.375Z,100089.68
2018-07-24T07:09:10.833Z,100085.45
2018-07-24T07:12:13.475Z,100069.88
2018-07-24T07:15:16.174Z,100083.53
2018-07-24T07:18:20.113Z,100075.41
2018-07-24T07:21:30.639Z,100068.55
2018-07-24T07:24:38.268Z,100066.31
2018-07-24T07:27:46.475Z,100067.73
2018-07-24T07:30:56.049Z,100070.38
2018-07-24T07:34:37.850Z,100060.25
2018-07-24T07:37:50.363Z,100059.59
2018-07-24T07:41:30.128Z,100060.31
2018-07-24T07:45:06.043Z,100056.83
2018-07-24T07:48:44.704Z,100054.94
2018-07-24T07:59:56.611Z,100053.25
2018-07-24T08:03:24.826Z,100057.00
2018-07-24T08:06:36.106Z,100053.52
2018-07-24T08:13:11.990Z,100052.58
2018-07-24T08:16:28.648Z,100049.42
2018-07-24T08:19:41.628Z,100054.41
2018-07-24T08:22:58.286Z,100049.53
2018-07-24T08:26:09.629Z,100053.86
2018-07-24T08:29:17.907Z,100046.80
2018-07-24T08:32:22.139Z,100041.69
2018-07-24T08:35:24.855Z,100039.56
2018-07-24T08:38:27.441Z,100044.59
2018-07-24T08:41:30.108Z,100044.88
2018-07-24T08:44:42.880Z,100046.30
2018-07-24T08:47:47.012Z,100042.89
2018-07-24T08:50:50.407Z,100046.87
2018-07-24T08:53:53.371Z,100041.70
2018-07-24T08:56:59.419Z,100036.39
2018-07-24T09:00:03.176Z,100034.40
2018-07-24T09:03:05.879Z,100036.08
2018-07-24T09:06:08.455Z,100032.80
2018-07-24T09:09:12.857Z,100027.02
2018-07-24T09:12:15.647Z,100022.22
2018-07-24T09:15:18.306Z,100025.03
2018-07-24T09:18:21.603Z,100025.50
2018-07-24T09:21:24.352Z,100030.20
2018-07-24T09:24:26.996Z,100022.84
2018-07-24T09:27:29.551Z,100018.51
2018-07-24T09:30:32.079Z,100017.81
2018-07-24T09:33:42.106Z,100019.06
2018-07-24T09:36:44.649Z,100021.45
2018-07-24T09:39:48.130Z,100019.70
2018-07-24T09:42:50.811Z,100023.46
2018-07-24T09:45:53.523Z,100027.10
2018-07-24T09:48:56.087Z,100022.66
2018-07-24T09:51:58.725Z,100024.34
2018-07-24T09:55:01.758Z,100019.70
2018-07-24T09:58:04.461Z,100014.31
2018-07-24T10:01:12.539Z,100015.81
2018-07-24T10:04:15.048Z,100008.89
2018-07-24T10:07:17.659Z,100006.09
2018-07-24T10:10:20.165Z,100008.19
2018-07-24T10:13:22.928Z,100002.98
2018-07-24T10:16:26.104Z,100003.34
2018-07-24T10:19:28.827Z,99991.60
2018-07-24T10:22:31.436Z,99994.73
2018-07-24T10:25:33.889Z,99988.09
2018-07-24T10:28:36.341Z,99990.78
2018-07-24T10:31:38.848Z,99984.10
2018-07-24T10:34:41.315Z,99981.70
2018-07-24T10:37:47.256Z,99974.31
2018-07-24T10:40:50.258Z,99969.75
2018-07-24T10:43:52.775Z,99975.41
2018-07-24T10:46:55.337Z,99971.32
2018-07-24T10:49:57.941Z,99976.25
2018-07-24T10:53:00.481Z,99976.42
2018-07-24T10:56:03.054Z,99973.90
2018-07-24T10:59:05.721Z,99966.37
2018-07-24T11:02:08.506Z,99967.20
2018-07-24T11:05:11.030Z,99958.27
2018-07-24T11:08:13.549Z,99953.30
2018-07-24T11:11:16.105Z,99955.84
2018-07-24T11:14:18.640Z,99952.12
2018-07-24T11:17:21.023Z,99963.37
2018-07-24T11:20:23.547Z,99953.02
2018-07-24T11:23:25.891Z,99949.68
2018-07-24T11:26:28.271Z,99944.77
2018-07-24T11:29:30.671Z,99943.69
2018-07-24T11:32:32.975Z,99750.61
2018-07-24T11:35:35.410Z,99929.74
2018-07-24T11:38:37.742Z,99930.31
2018-07-24T11:41:40.059Z,99924.80
2018-07-24T11:44:42.327Z,99923.33
2018-07-24T11:47:44.683Z,99922.05
2018-07-24T11:50:47.040Z,99922.50
2018-07-24T11:53:49.325Z,99921.63
2018-07-24T11:56:51.661Z,99909.20
2018-07-24T11:59:54.122Z,99911.83
2018-07-24T12:02:56.426Z,99913.64
2018-07-24T12:05:58.772Z,99912.73
2018-07-24T12:09:01.129Z,99902.65
2018-07-24T12:12:03.539Z,99907.29
2018-07-24T12:15:06.481Z,99904.69
2018-07-24T12:18:08.845Z,99902.19
2018-07-24T12:21:11.202Z,99903.63
2018-07-24T12:24:13.528Z,99899.47
2018-07-24T12:27:15.942Z,99899.50
2018-07-24T12:30:18.224Z,99896.11
2018-07-24T12:33:20.602Z,99901.97
2018-07-24T12:36:22.945Z,99896.45
2018-07-24T12:39:25.311Z,99891.38
2018-07-24T12:42:27.798Z,99888.56
2018-07-24T12:45:30.189Z,99885.55
2018-07-24T12:48:32.498Z,99884.19
2018-07-24T12:51:34.811Z,99883.22
2018-07-24T12:54:37.147Z,99885.08
2018-07-24T12:57:39.607Z,99876.27
2018-07-24T13:00:42.031Z,99880.62
2018-07-24T13:03:44.496Z,99878.05
2018-07-24T13:06:47.187Z,99868.68
2018-07-24T13:09:49.751Z,99874.06
2018-07-24T13:12:52.338Z,99862.77
2018-07-24T13:15:54.818Z,99861.36
2018-07-24T13:18:57.390Z,99865.34
2018-07-24T13:21:59.926Z,99856.19
2018-07-24T13:25:02.382Z,99862.39
2018-07-24T13:28:04.887Z,99851.01
2018-07-24T13:31:07.441Z,99860.19
2018-07-24T13:34:10.258Z,99856.83
2018-07-24T13:37:13.007Z,99855.11
2018-07-24T13:40:15.626Z,99856.12
2018-07-24T13:43:18.314Z,99849.65
2018-07-24T13:46:22.518Z,99848.37
2018-07-24T13:49:25.042Z,99854.26
2018-07-24T13:52:27.435Z,99850.50
2018-07-24T13:55:31.559Z,99854.26
2018-07-24T13:58:34.020Z,99848.80
2018-07-24T14:01:36.646Z,99845.44
2018-07-24T14:04:39.162Z,99841.59
2018-07-24T14:07:41.921Z,99838.89
2018-07-24T14:10:44.559Z,99836.38
2018-07-24T14:13:47.154Z,99829.78
2018-07-24T14:16:49.705Z,99829.64
2018-07-24T14:19:52.176Z,99828.26
2018-07-24T14:22:54.684Z,99829.88
2018-07-24T14:25:57.158Z,99822.38
2018-07-24T14:29:00.006Z,99816.09
2018-07-24T14:32:02.459Z,99817.02
2018-07-24T14:35:04.919Z,99812.01
2018-07-24T14:38:07.410Z,99817.08
2018-07-24T14:41:09.953Z,99808.08
2018-07-24T14:44:12.409Z,99811.42
2018-07-24T14:47:14.863Z,99809.87
2018-07-24T14:50:17.301Z,99804.25
2018-07-24T14:53:19.829Z,99806.83
2018-07-24T14:56:22.263Z,99802.25
2018-07-24T14:59:25.327Z,99804.02
2018-07-24T15:02:27.779Z,99809.53
2018-07-24T15:05:30.218Z,99799.58
2018-07-24T15:08:32.670Z,99795.58
2018-07-24T15:11:35.196Z,99805.13
2018-07-24T15:14:37.562Z,99798.02
2018-07-24T15:17:40.010Z,99798.54
2018-07-24T15:20:42.567Z,99798.58
2018-07-24T15:23:45.057Z,99792.23
2018-07-24T15:26:47.559Z,99794.02
2018-07-24T15:29:50.013Z,99787.73
2018-07-24T15:32:52.452Z,99788.28
2018-07-24T15:35:56.103Z,99787.61
2018-07-24T15:38:58.659Z,99786.30
2018-07-24T15:42:01.207Z,99782.95
2018-07-24T15:45:03.817Z,99783.40
2018-07-24T15:48:06.294Z,99787.77
2018-07-24T15:51:08.786Z,99779.42
2018-07-24T15:54:11.431Z,99783.34
2018-07-24T15:57:13.925Z,99786.38
2018-07-24T16:00:16.390Z,99780.06
2018-07-24T16:03:18.882Z,99776.66
2018-07-24T16:06:21.655Z,99776.88
2018-07-24T16:09:24.103Z,99778.94
2018-07-24T16:12:26.897Z,99779.42
2018-07-24T16:15:30.939Z,99781.39
2018-07-24T16:18:33.457Z,99778.84
2018-07-24T16:21:36.114Z,99776.81
2018-07-24T16:24:38.817Z,99785.52
2018-07-24T16:27:42.435Z,99727.77
2018-07-24T16:30:45.882Z,99778.81
2018-07-24T16:33:48.684Z,99777.66
2018-07-24T16:36:51.334Z,99780.17
2018-07-24T16:39:54.101Z,99775.58
2018-07-24T16:42:56.749Z,99781.20
2018-07-24T16:45:59.452Z,99770.95
2018-07-24T16:49:02.198Z,99770.46
2018-07-24T16:52:05.039Z,99774.92
2018-07-24T16:55:07.883Z,99769.27
2018-07-24T16:58:10.456Z,99769.61
2018-07-24T17:01:13.160Z,99768.98
2018-07-24T17:04:15.942Z,99689.58
2018-07-24T17:07:18.758Z,99771.75
2018-07-24T17:10:21.509Z,99770.61
2018-07-24T17:13:24.043Z,99769.73
2018-07-24T17:16:26.715Z,99767.33
2018-07-24T17:19:30.306Z,99770.92
2018-07-24T17:22:34.155Z,99770.75
2018-07-24T17:25:36.940Z,99770.70
2018-07-24T17:28:39.432Z,99766.83
2018-07-24T17:31:42.288Z,99772.12
2018-07-24T17:34:45.015Z,99768.46
2018-07-24T17:37:47.641Z,99768.43
2018-07-24T17:40:57.196Z,99772.75
2018-07-24T17:43:59.999Z,99768.11
2018-07-24T17:47:02.808Z,99776.27
2018-07-24T17:50:06.323Z,99772.28
2018-07-24T17:53:08.949Z,99775.91
2018-07-24T17:56:11.345Z,99782.53
2018-07-24T17:59:13.682Z,99780.87
2018-07-24T18:02:16.266Z,99780.05
2018-07-24T18:05:20.250Z,99783.80
2018-07-24T18:08:22.682Z,99657.69
2018-07-24T18:11:25.245Z,99786.78
2018-07-24T18:14:27.862Z,99795.98
2018-07-24T18:17:30.680Z,99790.41
2018-07-24T18:20:33.484Z,99794.72
2018-07-24T18:23:36.040Z,99795.53
2018-07-24T18:26:38.707Z,99789.86
2018-07-24T18:29:41.558Z,99797.08
2018-07-24T18:32:44.272Z,99795.37
2018-07-24T18:35:47.444Z,99792.43
2018-07-24T18:38:50.373Z,99790.34
2018-07-24T18:41:53.406Z,99790.34
2018-07-24T18:44:56.407Z,99792.56
2018-07-24T18:47:59.370Z,99799.19
2018-07-24T18:51:02.253Z,99801.23
2018-07-24T18:54:05.001Z,99798.29
2018-07-24T18:57:07.827Z,99800.81
2018-07-24T19:00:10.326Z,99797.02
2018-07-24T19:03:13.074Z,99801.74
2018-07-24T19:06:16.828Z,99806.05
2018-07-24T19:09:19.373Z,99800.70
2018-07-24T19:12:22.055Z,99794.72
2018-07-24T19:15:24.895Z,99797.56
2018-07-24T19:18:27.695Z,99798.22
2018-07-24T19:21:30.468Z,99804.38
2018-07-24T19:24:33.871Z,99802.81
2018-07-24T19:27:36.677Z,99806.88
2018-07-24T19:30:39.379Z,99804.38
2018-07-24T19:33:42.270Z,99812.86
2018-07-24T19:36:44.770Z,99807.71
2018-07-24T19:39:47.363Z,99813.58
2018-07-24T19:42:49.934Z,99808.51
2018-07-24T19:45:52.645Z,99834.59
2018-07-24T19:48:55.352Z,99820.09
2018-07-24T19:51:58.068Z,99820.47
2018-07-24T19:55:00.910Z,99818.37
2018-07-24T19:58:03.276Z,99824.44
2018-07-24T20:01:06.805Z,99851.14
2018-07-24T20:04:09.795Z,99828.53
2018-07-24T20:07:12.266Z,99827.88
2018-07-24T20:10:14.985Z,99831.03
2018-07-24T20:13:17.802Z,99830.85
2018-07-24T20:16:27.585Z,99833.12
2018-07-24T20:19:30.241Z,99828.93
2018-07-24T20:22:33.316Z,99829.25
2018-07-24T20:25:36.089Z,99837.45
2018-07-24T20:28:38.633Z,99835.80
2018-07-24T20:31:41.367Z,99846.95
2018-07-24T20:34:44.509Z,99841.56
2018-07-24T20:37:47.265Z,99842.20
2018-07-24T20:40:49.848Z,99840.20
2018-07-24T20:43:52.611Z,99835.28
2018-07-24T20:46:55.044Z,99837.80
2018-07-24T20:49:58.627Z,99837.84
2018-07-24T20:53:01.191Z,99833.76
2018-07-24T20:56:03.862Z,99839.20
2018-07-24T20:59:06.605Z,99837.04
2018-07-24T21:02:09.486Z,99837.78
2018-07-24T21:05:12.216Z,99828.08
2018-07-24T21:08:14.599Z,99837.33
2018-07-24T21:11:17.018Z,99835.97
2018-07-24T21:14:19.604Z,99834.11
2018-07-24T21:17:22.256Z,99834.56
2018-07-24T21:20:25.379Z,99827.19
2018-07-24T21:23:27.791Z,99828.91
2018-07-24T21:26:30.853Z,99825.73
2018-07-24T21:29:33.146Z,99826.59
2018-07-24T21:32:35.408Z,99822.61
2018-07-24T21:35:37.812Z,99825.92
2018-07-24T21:38:40.036Z,99827.83
2018-07-24T21:41:42.394Z,99827.28
2018-07-24T21:44:47.760Z,99830.14
2018-07-24T21:47:50.036Z,99825.92
2018-07-24T21:51:57.000Z,99833.41
2018-07-24T21:55:04.033Z,99840.02
2018-07-24T21:58:06.565Z,99845.19
2018-07-24T22:01:10.785Z,99842.33
2018-07-24T22:04:12.998Z,99843.23
2018-07-24T22:07:15.266Z,99839.02
2018-07-24T22:10:20.584Z,99842.77
2018-07-24T22:13:22.804Z,99841.64
2018-07-24T22:16:25.056Z,99845.48
2018-07-24T22:19:27.333Z,99849.02
2018-07-24T22:22:29.650Z,99852.45
2018-07-24T22:25:32.053Z,99853.94
2018-07-24T22:28:34.304Z,99857.82
2018-07-24T22:31:36.546Z,99867.18
2018-07-24T22:34:40.152Z,99879.83
2018-07-24T22:37:43.083Z,99879.61
2018-07-24T22:40:45.380Z,99865.80
2018-07-24T22:43:47.618Z,99873.38
2018-07-24T22:46:49.829Z,99873.13
2018-07-24T22:49:52.089Z,99874.39
2018-07-24T22:52:54.338Z,99880.41
2018-07-24T22:55:56.546Z,99878.69
2018-07-24T22:58:58.797Z,99880.28
2018-07-24T23:02:01.209Z,99881.77
2018-07-24T23:05:03.801Z,99886.87
2018-07-24T23:08:06.066Z,99884.03
2018-07-24T23:11:08.474Z,99888.44
2018-07-24T23:14:10.750Z,99886.75
2018-07-24T23:17:12.999Z,99882.01
2018-07-24T23:20:15.205Z,99882.07
2018-07-24T23:23:17.499Z,99883.20
2018-07-24T23:26:19.840Z,99882.27
2018-07-24T23:29:22.147Z,99882.39
2018-07-24T23:32:24.487Z,99881.34
2018-07-24T23:35:26.709Z,99875.16
2018-07-24T23:38:28.926Z,99876.70
2018-07-24T23:41:32.432Z,99875.95
2018-07-24T23:44:36.898Z,99872.95
2018-07-24T23:47:39.203Z,99873.79
2018-07-24T23:50:41.440Z,99867.86
2018-07-24T23:53:43.700Z,99867.68
2018-07-24T23:56:45.903Z,99869.38
2018-07-24T23:59:48.034Z,99864.75
